sensor_id;sensor_type;location;lat;lon;timestamp;temperature;humidity
51982;DHT22;37998;53.416;6.730;2023-07-29T00:01:41;18.60;99.90
51982;DHT22;37998;53.416;6.730;2023-07-29T00:04:07;18.70;99.90
51982;DHT22;37998;53.416;6.730;2023-07-29T00:06:34;18.70;99.90
51982;DHT22;37998;53.416;6.730;2023-07-29T00:09:01;18.70;99.90
51982;DHT22;37998;53.416;6.730;2023-07-29T00:11:27;18.70;99.90
51982;DHT22;37998;53.416;6.730;2023-07-29T00:13:52;18.80;99.90
51982;DHT22;37998;53.416;6.730;2023-07-29T00:16:19;18.70;99.90
51982;DHT22;37998;53.416;6.730;2023-07-29T00:18:48;18.70;99.90
51982;DHT22;37998;53.416;6.730;2023-07-29T00:21:14;18.70;99.90
51982;DHT22;37998;53.416;6.730;2023-07-29T00:23:40;18.70;99.90
51982;DHT22;37998;53.416;6.730;2023-07-29T00:26:06;18.80;99.90
51982;DHT22;37998;53.416;6.730;2023-07-29T00:28:32;18.80;99.90
51982;DHT22;37998;53.416;6.730;2023-07-29T00:30:58;18.70;99.90
51982;DHT22;37998;53.416;6.730;2023-07-29T00:33:27;18.70;99.90
51982;DHT22;37998;53.416;6.730;2023-07-29T00:35:53;18.70;99.90
51982;DHT22;37998;53.416;6.730;2023-07-29T00:38:22;18.70;99.90
51982;DHT22;37998;53.416;6.730;2023-07-29T00:40:48;18.70;99.90
51982;DHT22;37998;53.416;6.730;2023-07-29T00:43:14;18.70;99.90
51982;DHT22;37998;53.416;6.730;2023-07-29T00:45:41;18.70;99.90
51982;DHT22;37998;53.416;6.730;2023-07-29T00:48:08;18.70;99.90
51982;DHT22;37998;53.416;6.730;2023-07-29T00:50:35;18.70;99.90
51982;DHT22;37998;53.416;6.730;2023-07-29T00:53:01;18.70;99.90
51982;DHT22;37998;53.416;6.730;2023-07-29T00:55:28;18.70;99.90
51982;DHT22;37998;53.416;6.730;2023-07-29T00:57:54;18.70;99.90
51982;DHT22;37998;53.416;6.730;2023-07-29T01:00:21;18.70;99.90
51982;DHT22;37998;53.416;6.730;2023-07-29T01:02:47;18.70;99.90
51982;DHT22;37998;53.416;6.730;2023-07-29T01:05:15;18.70;99.90
51982;DHT22;37998;53.416;6.730;2023-07-29T01:07:59;18.70;99.90
51982;DHT22;37998;53.416;6.730;2023-07-29T01:11:03;18.70;99.90
51982;DHT22;37998;53.416;6.730;2023-07-29T01:13:39;18.70;99.90
51982;DHT22;37998;53.416;6.730;2023-07-29T01:16:13;18.70;99.90
51982;DHT22;37998;53.416;6.730;2023-07-29T01:18:44;18.70;99.90
51982;DHT22;37998;53.416;6.730;2023-07-29T01:21:12;18.70;99.90
51982;DHT22;37998;53.416;6.730;2023-07-29T01:23:39;18.70;99.90
51982;DHT22;37998;53.416;6.730;2023-07-29T01:26:05;18.70;99.90
51982;DHT22;37998;53.416;6.730;2023-07-29T01:28:33;18.60;99.90
51982;DHT22;37998;53.416;6.730;2023-07-29T01:33:52;18.60;99.90
51982;DHT22;37998;53.416;6.730;2023-07-29T01:36:23;18.60;99.90
51982;DHT22;37998;53.416;6.730;2023-07-29T01:38:54;18.60;99.90
51982;DHT22;37998;53.416;6.730;2023-07-29T01:41:22;18.60;99.90
51982;DHT22;37998;53.416;6.730;2023-07-29T01:43:50;18.60;99.90
51982;DHT22;37998;53.416;6.730;2023-07-29T01:46:16;18.60;99.90
51982;DHT22;37998;53.416;6.730;2023-07-29T01:48:42;18.50;99.90
51982;DHT22;37998;53.416;6.730;2023-07-29T01:51:11;18.60;99.90
51982;DHT22;37998;53.416;6.730;2023-07-29T01:53:37;18.60;99.90
51982;DHT22;37998;53.416;6.730;2023-07-29T01:56:06;18.50;99.90
51982;DHT22;37998;53.416;6.730;2023-07-29T01:58:34;18.50;99.90
51982;DHT22;37998;53.416;6.730;2023-07-29T02:01:00;18.50;99.90
51982;DHT22;37998;53.416;6.730;2023-07-29T02:03:26;18.50;99.90
51982;DHT22;37998;53.416;6.730;2023-07-29T02:05:52;18.50;99.90
51982;DHT22;37998;53.416;6.730;2023-07-29T02:08:17;18.50;99.90
51982;DHT22;37998;53.416;6.730;2023-07-29T02:10:43;18.50;99.90
51982;DHT22;37998;53.416;6.730;2023-07-29T02:13:12;18.50;99.90
51982;DHT22;37998;53.416;6.730;2023-07-29T02:15:38;18.50;99.90
51982;DHT22;37998;53.416;6.730;2023-07-29T02:18:03;18.50;99.90
51982;DHT22;37998;53.416;6.730;2023-07-29T02:20:32;18.50;99.90
51982;DHT22;37998;53.416;6.730;2023-07-29T02:22:58;18.50;99.90
51982;DHT22;37998;53.416;6.730;2023-07-29T02:25:24;18.40;99.90
51982;DHT22;37998;53.416;6.730;2023-07-29T02:27:50;18.40;99.90
51982;DHT22;37998;53.416;6.730;2023-07-29T02:30:16;18.30;99.90
51982;DHT22;37998;53.416;6.730;2023-07-29T02:32:41;18.30;99.90
51982;DHT22;37998;53.416;6.730;2023-07-29T02:35:08;18.30;99.90
51982;DHT22;37998;53.416;6.730;2023-07-29T02:37:34;18.30;99.90
51982;DHT22;37998;53.416;6.730;2023-07-29T02:39:59;18.40;99.90
51982;DHT22;37998;53.416;6.730;2023-07-29T02:42:26;18.40;99.90
51982;DHT22;37998;53.416;6.730;2023-07-29T02:44:52;18.30;99.90
51982;DHT22;37998;53.416;6.730;2023-07-29T02:47:18;18.30;99.90
51982;DHT22;37998;53.416;6.730;2023-07-29T02:49:44;18.20;99.90
51982;DHT22;37998;53.416;6.730;2023-07-29T02:52:10;18.20;99.90
51982;DHT22;37998;53.416;6.730;2023-07-29T02:54:36;18.10;99.90
51982;DHT22;37998;53.416;6.730;2023-07-29T02:57:02;18.10;99.90
51982;DHT22;37998;53.416;6.730;2023-07-29T02:59:28;18.00;99.90
51982;DHT22;37998;53.416;6.730;2023-07-29T03:01:54;18.00;99.90
51982;DHT22;37998;53.416;6.730;2023-07-29T03:04:20;18.00;99.90
51982;DHT22;37998;53.416;6.730;2023-07-29T03:06:47;17.90;99.90
51982;DHT22;37998;53.416;6.730;2023-07-29T03:09:13;17.90;99.90
51982;DHT22;37998;53.416;6.730;2023-07-29T03:11:39;17.80;99.90
51982;DHT22;37998;53.416;6.730;2023-07-29T03:14:05;17.80;99.90
51982;DHT22;37998;53.416;6.730;2023-07-29T03:16:34;17.70;99.90
51982;DHT22;37998;53.416;6.730;2023-07-29T03:19:00;17.80;99.90
51982;DHT22;37998;53.416;6.730;2023-07-29T03:21:27;17.80;99.90
51982;DHT22;37998;53.416;6.730;2023-07-29T03:23:53;17.80;99.90
51982;DHT22;37998;53.416;6.730;2023-07-29T03:26:18;17.70;99.90
51982;DHT22;37998;53.416;6.730;2023-07-29T03:28:44;17.70;99.90
51982;DHT22;37998;53.416;6.730;2023-07-29T03:31:11;17.70;99.90
51982;DHT22;37998;53.416;6.730;2023-07-29T03:33:37;17.60;99.90
51982;DHT22;37998;53.416;6.730;2023-07-29T03:36:03;17.60;99.90
51982;DHT22;37998;53.416;6.730;2023-07-29T03:38:29;17.50;99.90
51982;DHT22;37998;53.416;6.730;2023-07-29T03:40:56;17.50;99.90
51982;DHT22;37998;53.416;6.730;2023-07-29T03:43:22;17.50;99.90
51982;DHT22;37998;53.416;6.730;2023-07-29T03:45:48;17.40;99.90
51982;DHT22;37998;53.416;6.730;2023-07-29T03:48:15;17.40;99.90
51982;DHT22;37998;53.416;6.730;2023-07-29T03:50:40;17.40;99.90
51982;DHT22;37998;53.416;6.730;2023-07-29T03:53:06;17.30;99.90
51982;DHT22;37998;53.416;6.730;2023-07-29T03:55:35;17.30;99.90
51982;DHT22;37998;53.416;6.730;2023-07-29T03:58:01;17.30;99.90
51982;DHT22;37998;53.416;6.730;2023-07-29T04:00:27;17.30;99.90
51982;DHT22;37998;53.416;6.730;2023-07-29T04:02:56;17.20;99.90
51982;DHT22;37998;53.416;6.730;2023-07-29T04:05:22;17.30;99.90
51982;DHT22;37998;53.416;6.730;2023-07-29T04:07:48;17.20;99.90
51982;DHT22;37998;53.416;6.730;2023-07-29T04:10:14;17.20;99.90
51982;DHT22;37998;53.416;6.730;2023-07-29T04:12:40;17.20;99.90
51982;DHT22;37998;53.416;6.730;2023-07-29T04:15:07;17.20;99.90
51982;DHT22;37998;53.416;6.730;2023-07-29T04:17:33;17.20;99.90
51982;DHT22;37998;53.416;6.730;2023-07-29T04:19:59;17.20;99.90
51982;DHT22;37998;53.416;6.730;2023-07-29T04:22:31;17.20;99.90
51982;DHT22;37998;53.416;6.730;2023-07-29T04:24:57;17.20;99.90
51982;DHT22;37998;53.416;6.730;2023-07-29T04:27:23;17.10;99.90
51982;DHT22;37998;53.416;6.730;2023-07-29T04:29:49;17.20;99.90
51982;DHT22;37998;53.416;6.730;2023-07-29T04:32:14;17.10;99.90
51982;DHT22;37998;53.416;6.730;2023-07-29T04:34:42;17.10;99.90
51982;DHT22;37998;53.416;6.730;2023-07-29T04:37:08;17.10;99.90
51982;DHT22;37998;53.416;6.730;2023-07-29T04:39:37;17.10;99.90
51982;DHT22;37998;53.416;6.730;2023-07-29T04:42:03;17.00;99.90
51982;DHT22;37998;53.416;6.730;2023-07-29T04:44:29;17.00;99.90
51982;DHT22;37998;53.416;6.730;2023-07-29T04:46:55;17.00;99.90
51982;DHT22;37998;53.416;6.730;2023-07-29T04:49:21;17.00;99.90
51982;DHT22;37998;53.416;6.730;2023-07-29T04:51:47;17.10;99.90
51982;DHT22;37998;53.416;6.730;2023-07-29T04:54:13;17.10;99.90
51982;DHT22;37998;53.416;6.730;2023-07-29T04:56:39;17.10;99.90
51982;DHT22;37998;53.416;6.730;2023-07-29T04:59:04;17.10;99.90
51982;DHT22;37998;53.416;6.730;2023-07-29T05:01:32;17.20;99.90
51982;DHT22;37998;53.416;6.730;2023-07-29T05:03:58;17.20;99.90
51982;DHT22;37998;53.416;6.730;2023-07-29T05:06:23;17.20;99.90
51982;DHT22;37998;53.416;6.730;2023-07-29T05:08:49;17.30;99.90
51982;DHT22;37998;53.416;6.730;2023-07-29T05:11:15;17.30;99.90
51982;DHT22;37998;53.416;6.730;2023-07-29T05:13:41;17.40;99.90
51982;DHT22;37998;53.416;6.730;2023-07-29T05:16:09;17.40;99.90
51982;DHT22;37998;53.416;6.730;2023-07-29T05:18:38;17.40;99.90
51982;DHT22;37998;53.416;6.730;2023-07-29T05:21:04;17.50;99.90
51982;DHT22;37998;53.416;6.730;2023-07-29T05:23:30;17.50;99.90
51982;DHT22;37998;53.416;6.730;2023-07-29T05:25:56;17.50;99.90
51982;DHT22;37998;53.416;6.730;2023-07-29T05:28:24;17.60;99.90
51982;DHT22;37998;53.416;6.730;2023-07-29T05:30:50;17.60;99.90
51982;DHT22;37998;53.416;6.730;2023-07-29T05:33:16;17.60;99.90
51982;DHT22;37998;53.416;6.730;2023-07-29T05:35:42;17.60;99.90
51982;DHT22;37998;53.416;6.730;2023-07-29T05:38:08;17.70;99.90
51982;DHT22;37998;53.416;6.730;2023-07-29T05:40:35;17.60;99.90
51982;DHT22;37998;53.416;6.730;2023-07-29T05:43:01;17.70;99.90
51982;DHT22;37998;53.416;6.730;2023-07-29T05:45:28;17.70;99.90
51982;DHT22;37998;53.416;6.730;2023-07-29T05:47:56;17.70;99.90
51982;DHT22;37998;53.416;6.730;2023-07-29T05:50:22;17.70;99.90
51982;DHT22;37998;53.416;6.730;2023-07-29T05:52:48;17.70;99.90
51982;DHT22;37998;53.416;6.730;2023-07-29T05:55:14;17.70;99.90
51982;DHT22;37998;53.416;6.730;2023-07-29T05:57:40;17.70;99.90
51982;DHT22;37998;53.416;6.730;2023-07-29T06:00:08;17.70;99.90
51982;DHT22;37998;53.416;6.730;2023-07-29T06:02:42;17.70;99.90
51982;DHT22;37998;53.416;6.730;2023-07-29T06:05:13;17.80;99.90
51982;DHT22;37998;53.416;6.730;2023-07-29T06:07:39;17.80;99.90
51982;DHT22;37998;53.416;6.730;2023-07-29T06:10:12;17.90;99.90
51982;DHT22;37998;53.416;6.730;2023-07-29T06:12:38;17.90;99.90
51982;DHT22;37998;53.416;6.730;2023-07-29T06:15:07;17.90;99.90
51982;DHT22;37998;53.416;6.730;2023-07-29T06:17:33;17.90;99.90
51982;DHT22;37998;53.416;6.730;2023-07-29T06:19:59;18.00;99.90
51982;DHT22;37998;53.416;6.730;2023-07-29T06:22:25;18.00;99.90
51982;DHT22;37998;53.416;6.730;2023-07-29T06:24:51;18.00;99.90
51982;DHT22;37998;53.416;6.730;2023-07-29T06:27:17;18.10;99.90
51982;DHT22;37998;53.416;6.730;2023-07-29T06:29:43;18.10;99.90
51982;DHT22;37998;53.416;6.730;2023-07-29T06:32:09;18.10;99.90
51982;DHT22;37998;53.416;6.730;2023-07-29T06:34:35;18.10;99.90
51982;DHT22;37998;53.416;6.730;2023-07-29T06:37:01;18.10;99.90
51982;DHT22;37998;53.416;6.730;2023-07-29T06:39:27;18.10;99.90
51982;DHT22;37998;53.416;6.730;2023-07-29T06:41:58;18.10;99.90
51982;DHT22;37998;53.416;6.730;2023-07-29T06:44:24;18.10;99.90
51982;DHT22;37998;53.416;6.730;2023-07-29T06:46:50;18.20;99.90
51982;DHT22;37998;53.416;6.730;2023-07-29T06:49:17;18.20;99.90
51982;DHT22;37998;53.416;6.730;2023-07-29T06:51:42;18.30;99.90
51982;DHT22;37998;53.416;6.730;2023-07-29T06:54:11;18.50;99.90
51982;DHT22;37998;53.416;6.730;2023-07-29T06:56:37;18.50;99.90
51982;DHT22;37998;53.416;6.730;2023-07-29T06:59:03;18.60;99.90
51982;DHT22;37998;53.416;6.730;2023-07-29T07:01:29;18.80;99.90
51982;DHT22;37998;53.416;6.730;2023-07-29T07:03:55;18.90;99.90
51982;DHT22;37998;53.416;6.730;2023-07-29T07:06:24;18.90;99.90
51982;DHT22;37998;53.416;6.730;2023-07-29T07:08:51;18.90;99.90
51982;DHT22;37998;53.416;6.730;2023-07-29T07:11:18;18.90;99.90
51982;DHT22;37998;53.416;6.730;2023-07-29T07:13:44;19.00;99.90
51982;DHT22;37998;53.416;6.730;2023-07-29T07:16:10;19.00;99.90
51982;DHT22;37998;53.416;6.730;2023-07-29T07:18:36;19.00;99.90
51982;DHT22;37998;53.416;6.730;2023-07-29T07:21:02;19.10;99.90
51982;DHT22;37998;53.416;6.730;2023-07-29T07:23:29;19.20;99.90
51982;DHT22;37998;53.416;6.730;2023-07-29T07:25:55;19.30;99.90
51982;DHT22;37998;53.416;6.730;2023-07-29T07:28:20;19.40;99.90
51982;DHT22;37998;53.416;6.730;2023-07-29T07:30:46;19.40;99.90
51982;DHT22;37998;53.416;6.730;2023-07-29T07:33:12;19.50;99.90
51982;DHT22;37998;53.416;6.730;2023-07-29T07:35:38;19.60;99.90
51982;DHT22;37998;53.416;6.730;2023-07-29T07:38:04;19.60;99.90
51982;DHT22;37998;53.416;6.730;2023-07-29T07:40:33;19.70;99.90
51982;DHT22;37998;53.416;6.730;2023-07-29T07:43:02;19.60;99.90
51982;DHT22;37998;53.416;6.730;2023-07-29T07:45:28;19.60;99.90
51982;DHT22;37998;53.416;6.730;2023-07-29T07:47:54;19.60;99.90
51982;DHT22;37998;53.416;6.730;2023-07-29T07:50:20;19.60;99.90
51982;DHT22;37998;53.416;6.730;2023-07-29T07:52:46;19.70;99.90
51982;DHT22;37998;53.416;6.730;2023-07-29T07:55:12;19.70;99.90
51982;DHT22;37998;53.416;6.730;2023-07-29T07:57:40;19.70;99.90
51982;DHT22;37998;53.416;6.730;2023-07-29T08:00:06;19.60;99.90
51982;DHT22;37998;53.416;6.730;2023-07-29T08:02:38;19.70;99.90
51982;DHT22;37998;53.416;6.730;2023-07-29T08:05:05;19.70;99.90
51982;DHT22;37998;53.416;6.730;2023-07-29T08:07:31;19.90;99.90
51982;DHT22;37998;53.416;6.730;2023-07-29T08:09:57;19.90;99.90
51982;DHT22;37998;53.416;6.730;2023-07-29T08:12:22;19.90;99.90
51982;DHT22;37998;53.416;6.730;2023-07-29T08:14:48;19.80;99.90
51982;DHT22;37998;53.416;6.730;2023-07-29T08:17:17;19.90;99.90
51982;DHT22;37998;53.416;6.730;2023-07-29T08:19:43;20.00;99.90
51982;DHT22;37998;53.416;6.730;2023-07-29T08:22:09;19.90;99.90
51982;DHT22;37998;53.416;6.730;2023-07-29T08:24:35;20.00;99.90
51982;DHT22;37998;53.416;6.730;2023-07-29T08:27:01;20.10;99.90
51982;DHT22;37998;53.416;6.730;2023-07-29T08:29:27;20.10;99.90
51982;DHT22;37998;53.416;6.730;2023-07-29T08:31:56;20.10;99.90
51982;DHT22;37998;53.416;6.730;2023-07-29T08:34:24;20.20;99.90
51982;DHT22;37998;53.416;6.730;2023-07-29T08:36:50;20.20;99.90
51982;DHT22;37998;53.416;6.730;2023-07-29T08:39:16;20.30;99.90
51982;DHT22;37998;53.416;6.730;2023-07-29T08:42:00;20.40;99.90
51982;DHT22;37998;53.416;6.730;2023-07-29T08:44:32;20.50;99.90
51982;DHT22;37998;53.416;6.730;2023-07-29T08:47:00;20.50;99.90
51982;DHT22;37998;53.416;6.730;2023-07-29T08:49:26;20.50;99.90
51982;DHT22;37998;53.416;6.730;2023-07-29T08:51:54;20.50;99.90
51982;DHT22;37998;53.416;6.730;2023-07-29T08:54:21;20.50;99.90
51982;DHT22;37998;53.416;6.730;2023-07-29T08:56:47;20.50;99.90
51982;DHT22;37998;53.416;6.730;2023-07-29T08:59:14;20.50;99.90
51982;DHT22;37998;53.416;6.730;2023-07-29T09:01:42;20.60;99.90
51982;DHT22;37998;53.416;6.730;2023-07-29T09:04:08;20.70;99.90
51982;DHT22;37998;53.416;6.730;2023-07-29T09:06:35;20.70;99.90
51982;DHT22;37998;53.416;6.730;2023-07-29T09:09:02;20.80;99.90
51982;DHT22;37998;53.416;6.730;2023-07-29T09:11:28;20.80;99.90
51982;DHT22;37998;53.416;6.730;2023-07-29T09:13:54;20.80;99.90
51982;DHT22;37998;53.416;6.730;2023-07-29T09:16:21;20.80;99.90
51982;DHT22;37998;53.416;6.730;2023-07-29T09:18:48;20.90;99.90
51982;DHT22;37998;53.416;6.730;2023-07-29T09:21:17;21.00;99.90
51982;DHT22;37998;53.416;6.730;2023-07-29T09:23:44;21.20;99.90
51982;DHT22;37998;53.416;6.730;2023-07-29T09:26:11;21.50;99.90
51982;DHT22;37998;53.416;6.730;2023-07-29T09:28:38;21.60;99.90
51982;DHT22;37998;53.416;6.730;2023-07-29T09:31:05;21.80;99.90
51982;DHT22;37998;53.416;6.730;2023-07-29T09:33:35;21.80;99.90
51982;DHT22;37998;53.416;6.730;2023-07-29T09:36:08;21.80;99.90
51982;DHT22;37998;53.416;6.730;2023-07-29T09:38:35;21.80;99.90
51982;DHT22;37998;53.416;6.730;2023-07-29T09:41:01;21.80;99.90
51982;DHT22;37998;53.416;6.730;2023-07-29T09:43:32;21.90;99.90
51982;DHT22;37998;53.416;6.730;2023-07-29T09:46:03;22.00;99.90
51982;DHT22;37998;53.416;6.730;2023-07-29T09:48:37;22.10;99.90
51982;DHT22;37998;53.416;6.730;2023-07-29T09:51:13;22.00;99.90
51982;DHT22;37998;53.416;6.730;2023-07-29T09:53:43;21.90;99.90
51982;DHT22;37998;53.416;6.730;2023-07-29T09:56:10;21.90;99.90
51982;DHT22;37998;53.416;6.730;2023-07-29T09:58:36;22.10;99.90
51982;DHT22;37998;53.416;6.730;2023-07-29T10:01:05;22.30;99.90
51982;DHT22;37998;53.416;6.730;2023-07-29T10:03:31;22.50;99.90
51982;DHT22;37998;53.416;6.730;2023-07-29T10:06:05;22.60;99.90
51982;DHT22;37998;53.416;6.730;2023-07-29T10:08:32;22.70;99.90
51982;DHT22;37998;53.416;6.730;2023-07-29T10:11:01;22.70;99.90
51982;DHT22;37998;53.416;6.730;2023-07-29T10:13:31;22.80;99.90
51982;DHT22;37998;53.416;6.730;2023-07-29T10:15:57;22.80;99.90
51982;DHT22;37998;53.416;6.730;2023-07-29T10:18:23;23.00;99.90
51982;DHT22;37998;53.416;6.730;2023-07-29T10:20:52;23.10;99.90
51982;DHT22;37998;53.416;6.730;2023-07-29T10:23:21;23.10;99.90
51982;DHT22;37998;53.416;6.730;2023-07-29T10:26:03;22.90;99.90
51982;DHT22;37998;53.416;6.730;2023-07-29T10:28:31;22.90;99.90
51982;DHT22;37998;53.416;6.730;2023-07-29T10:30:58;23.00;99.90
51982;DHT22;37998;53.416;6.730;2023-07-29T10:33:27;23.20;99.90
51982;DHT22;37998;53.416;6.730;2023-07-29T10:35:54;23.40;99.90
51982;DHT22;37998;53.416;6.730;2023-07-29T10:38:24;23.50;99.90
51982;DHT22;37998;53.416;6.730;2023-07-29T10:40:54;23.70;99.90
51982;DHT22;37998;53.416;6.730;2023-07-29T10:43:35;23.90;99.90
51982;DHT22;37998;53.416;6.730;2023-07-29T10:46:16;23.90;99.90
51982;DHT22;37998;53.416;6.730;2023-07-29T10:48:56;23.80;99.90
51982;DHT22;37998;53.416;6.730;2023-07-29T10:51:30;23.80;99.90
51982;DHT22;37998;53.416;6.730;2023-07-29T10:56:27;23.80;99.90
51982;DHT22;37998;53.416;6.730;2023-07-29T10:58:55;23.80;99.90
51982;DHT22;37998;53.416;6.730;2023-07-29T11:01:32;23.80;99.90
51982;DHT22;37998;53.416;6.730;2023-07-29T11:09:51;24.00;99.90
51982;DHT22;37998;53.416;6.730;2023-07-29T11:17:42;23.90;99.90
51982;DHT22;37998;53.416;6.730;2023-07-29T11:20:10;23.80;99.90
51982;DHT22;37998;53.416;6.730;2023-07-29T11:22:36;23.80;99.90
51982;DHT22;37998;53.416;6.730;2023-07-29T11:25:03;23.60;99.90
51982;DHT22;37998;53.416;6.730;2023-07-29T11:27:29;23.50;99.90
51982;DHT22;37998;53.416;6.730;2023-07-29T11:30:04;23.30;99.90
51982;DHT22;37998;53.416;6.730;2023-07-29T11:32:37;23.20;99.90
51982;DHT22;37998;53.416;6.730;2023-07-29T11:35:08;23.10;99.90
51982;DHT22;37998;53.416;6.730;2023-07-29T11:37:37;23.00;99.90
51982;DHT22;37998;53.416;6.730;2023-07-29T11:40:04;22.80;99.90
51982;DHT22;37998;53.416;6.730;2023-07-29T11:42:33;22.60;99.90
51982;DHT22;37998;53.416;6.730;2023-07-29T11:45:00;22.50;99.90
51982;DHT22;37998;53.416;6.730;2023-07-29T11:47:30;22.50;99.90
51982;DHT22;37998;53.416;6.730;2023-07-29T11:50:01;22.40;99.90
51982;DHT22;37998;53.416;6.730;2023-07-29T11:52:28;22.30;99.90
51982;DHT22;37998;53.416;6.730;2023-07-29T11:54:57;22.20;99.90
51982;DHT22;37998;53.416;6.730;2023-07-29T11:57:24;22.20;99.90
51982;DHT22;37998;53.416;6.730;2023-07-29T11:59:53;22.10;99.90
51982;DHT22;37998;53.416;6.730;2023-07-29T12:02:20;22.30;99.90
51982;DHT22;37998;53.416;6.730;2023-07-29T12:04:47;22.60;99.90
51982;DHT22;37998;53.416;6.730;2023-07-29T12:07:16;22.80;99.90
51982;DHT22;37998;53.416;6.730;2023-07-29T12:09:42;22.80;99.90
51982;DHT22;37998;53.416;6.730;2023-07-29T12:12:09;22.80;99.90
51982;DHT22;37998;53.416;6.730;2023-07-29T12:14:35;22.60;99.90
51982;DHT22;37998;53.416;6.730;2023-07-29T12:17:06;22.40;99.90
51982;DHT22;37998;53.416;6.730;2023-07-29T12:19:37;22.30;99.90
51982;DHT22;37998;53.416;6.730;2023-07-29T12:22:06;22.20;99.90
51982;DHT22;37998;53.416;6.730;2023-07-29T12:24:35;22.10;99.90
51982;DHT22;37998;53.416;6.730;2023-07-29T12:27:01;21.90;99.90
51982;DHT22;37998;53.416;6.730;2023-07-29T12:29:27;21.70;99.90
51982;DHT22;37998;53.416;6.730;2023-07-29T12:32:01;21.40;99.90
51982;DHT22;37998;53.416;6.730;2023-07-29T12:34:29;21.10;99.90
51982;DHT22;37998;53.416;6.730;2023-07-29T12:36:57;20.90;99.90
51982;DHT22;37998;53.416;6.730;2023-07-29T12:39:26;20.80;99.90
51982;DHT22;37998;53.416;6.730;2023-07-29T12:41:54;20.90;99.90
51982;DHT22;37998;53.416;6.730;2023-07-29T12:44:22;20.80;99.90
51982;DHT22;37998;53.416;6.730;2023-07-29T12:46:48;20.80;99.90
51982;DHT22;37998;53.416;6.730;2023-07-29T12:49:14;20.90;99.90
51982;DHT22;37998;53.416;6.730;2023-07-29T12:51:41;21.10;99.90
51982;DHT22;37998;53.416;6.730;2023-07-29T12:54:07;21.40;99.90
51982;DHT22;37998;53.416;6.730;2023-07-29T12:56:33;21.50;99.90
51982;DHT22;37998;53.416;6.730;2023-07-29T12:59:00;21.60;99.90
51982;DHT22;37998;53.416;6.730;2023-07-29T13:01:26;21.60;99.90
51982;DHT22;37998;53.416;6.730;2023-07-29T13:03:53;21.60;99.90
51982;DHT22;37998;53.416;6.730;2023-07-29T13:06:19;21.60;99.90
51982;DHT22;37998;53.416;6.730;2023-07-29T13:08:46;21.50;99.90
51982;DHT22;37998;53.416;6.730;2023-07-29T13:11:13;21.50;99.90
51982;DHT22;37998;53.416;6.730;2023-07-29T13:13:38;21.50;99.90
51982;DHT22;37998;53.416;6.730;2023-07-29T13:16:04;21.60;99.90
51982;DHT22;37998;53.416;6.730;2023-07-29T13:18:32;21.50;99.90
51982;DHT22;37998;53.416;6.730;2023-07-29T13:20:58;21.60;99.90
51982;DHT22;37998;53.416;6.730;2023-07-29T13:23:26;21.50;99.90
51982;DHT22;37998;53.416;6.730;2023-07-29T13:25:55;21.50;99.90
51982;DHT22;37998;53.416;6.730;2023-07-29T13:28:24;21.50;99.90
51982;DHT22;37998;53.416;6.730;2023-07-29T13:30:50;21.60;99.90
51982;DHT22;37998;53.416;6.730;2023-07-29T13:33:16;21.60;99.90
51982;DHT22;37998;53.416;6.730;2023-07-29T13:35:42;21.70;99.90
51982;DHT22;37998;53.416;6.730;2023-07-29T13:38:08;21.90;99.90
51982;DHT22;37998;53.416;6.730;2023-07-29T13:40:34;22.20;99.90
51982;DHT22;37998;53.416;6.730;2023-07-29T13:43:00;22.50;99.90
51982;DHT22;37998;53.416;6.730;2023-07-29T13:45:26;22.60;99.90
51982;DHT22;37998;53.416;6.730;2023-07-29T13:47:52;22.70;99.90
51982;DHT22;37998;53.416;6.730;2023-07-29T13:50:18;22.80;99.90
51982;DHT22;37998;53.416;6.730;2023-07-29T13:52:44;22.80;99.90
51982;DHT22;37998;53.416;6.730;2023-07-29T13:55:10;22.70;99.90
51982;DHT22;37998;53.416;6.730;2023-07-29T13:57:37;22.50;99.90
51982;DHT22;37998;53.416;6.730;2023-07-29T14:00:05;22.60;99.90
51982;DHT22;37998;53.416;6.730;2023-07-29T14:02:37;22.60;99.90
51982;DHT22;37998;53.416;6.730;2023-07-29T14:05:03;22.60;99.90
51982;DHT22;37998;53.416;6.730;2023-07-29T14:07:29;22.60;99.90
51982;DHT22;37998;53.416;6.730;2023-07-29T14:09:55;22.70;99.90
51982;DHT22;37998;53.416;6.730;2023-07-29T14:12:21;22.70;99.90
51982;DHT22;37998;53.416;6.730;2023-07-29T14:14:47;22.80;99.90
51982;DHT22;37998;53.416;6.730;2023-07-29T14:17:12;22.90;99.90
51982;DHT22;37998;53.416;6.730;2023-07-29T14:19:38;23.00;99.90
51982;DHT22;37998;53.416;6.730;2023-07-29T14:22:07;23.00;99.90
51982;DHT22;37998;53.416;6.730;2023-07-29T14:24:33;23.00;99.90
51982;DHT22;37998;53.416;6.730;2023-07-29T14:26:59;23.10;99.90
51982;DHT22;37998;53.416;6.730;2023-07-29T14:29:24;23.10;99.90
51982;DHT22;37998;53.416;6.730;2023-07-29T14:31:51;23.10;99.90
51982;DHT22;37998;53.416;6.730;2023-07-29T14:34:17;23.00;99.90
51982;DHT22;37998;53.416;6.730;2023-07-29T14:36:43;22.90;99.90
51982;DHT22;37998;53.416;6.730;2023-07-29T14:39:09;23.00;99.90
51982;DHT22;37998;53.416;6.730;2023-07-29T14:41:36;23.00;99.90
51982;DHT22;37998;53.416;6.730;2023-07-29T14:44:02;23.00;99.90
51982;DHT22;37998;53.416;6.730;2023-07-29T14:46:27;22.90;99.90
51982;DHT22;37998;53.416;6.730;2023-07-29T14:48:53;22.90;99.90
51982;DHT22;37998;53.416;6.730;2023-07-29T14:51:19;23.00;99.90
51982;DHT22;37998;53.416;6.730;2023-07-29T14:53:45;23.00;99.90
51982;DHT22;37998;53.416;6.730;2023-07-29T14:56:11;23.00;99.90
51982;DHT22;37998;53.416;6.730;2023-07-29T14:58:42;23.10;99.90
51982;DHT22;37998;53.416;6.730;2023-07-29T15:01:08;23.10;99.90
51982;DHT22;37998;53.416;6.730;2023-07-29T15:03:34;23.10;99.90
51982;DHT22;37998;53.416;6.730;2023-07-29T15:06:00;23.10;99.90
51982;DHT22;37998;53.416;6.730;2023-07-29T15:08:26;23.10;99.90
51982;DHT22;37998;53.416;6.730;2023-07-29T15:10:52;23.00;99.90
51982;DHT22;37998;53.416;6.730;2023-07-29T15:13:19;23.00;99.90
51982;DHT22;37998;53.416;6.730;2023-07-29T15:15:45;22.90;99.90
51982;DHT22;37998;53.416;6.730;2023-07-29T15:18:11;22.90;99.90
51982;DHT22;37998;53.416;6.730;2023-07-29T15:20:37;22.90;99.90
51982;DHT22;37998;53.416;6.730;2023-07-29T15:23:03;22.90;99.90
51982;DHT22;37998;53.416;6.730;2023-07-29T15:25:29;23.00;99.90
51982;DHT22;37998;53.416;6.730;2023-07-29T15:27:55;22.80;99.90
51982;DHT22;37998;53.416;6.730;2023-07-29T15:30:21;22.80;99.90
51982;DHT22;37998;53.416;6.730;2023-07-29T15:32:47;22.80;99.90
51982;DHT22;37998;53.416;6.730;2023-07-29T15:35:13;22.80;99.90
51982;DHT22;37998;53.416;6.730;2023-07-29T15:37:38;22.90;99.90
51982;DHT22;37998;53.416;6.730;2023-07-29T15:40:05;22.90;99.90
51982;DHT22;37998;53.416;6.730;2023-07-29T15:42:32;22.90;99.90
51982;DHT22;37998;53.416;6.730;2023-07-29T15:44:59;22.90;99.90
51982;DHT22;37998;53.416;6.730;2023-07-29T15:47:24;22.90;99.90